sensor_id;sensor_type;location;lat;lon;timestamp;P1;durP1;ratioP1;P2;durP2;ratioP2
15776;SDS011;7989;51.198;6.676;2024-02-26T00:01:50;2.45;;;1.35;;
15776;SDS011;7989;51.198;6.676;2024-02-26T00:04:17;2.17;;;1.90;;
15776;SDS011;7989;51.198;6.676;2024-02-26T00:06:44;2.60;;;1.85;;
15776;SDS011;7989;51.198;6.676;2024-02-26T00:09:11;2.35;;;1.40;;
15776;SDS011;7989;51.198;6.676;2024-02-26T00:11:38;2.53;;;1.67;;
15776;SDS011;7989;51.198;6.676;2024-02-26T00:14:05;1.38;;;1.27;;
15776;SDS011;7989;51.198;6.676;2024-02-26T00:16:31;2.78;;;1.42;;
15776;SDS011;7989;51.198;6.676;2024-02-26T00:18:59;1.50;;;1.40;;
15776;SDS011;7989;51.198;6.676;2024-02-26T00:21:27;1.55;;;1.38;;
15776;SDS011;7989;51.198;6.676;2024-02-26T00:23:54;1.75;;;1.52;;
15776;SDS011;7989;51.198;6.676;2024-02-26T00:26:21;1.75;;;1.33;;
15776;SDS011;7989;51.198;6.676;2024-02-26T00:28:48;2.08;;;1.65;;
15776;SDS011;7989;51.198;6.676;2024-02-26T00:31:15;2.70;;;2.03;;
15776;SDS011;7989;51.198;6.676;2024-02-26T00:33:42;3.97;;;2.03;;
15776;SDS011;7989;51.198;6.676;2024-02-26T00:36:10;3.92;;;3.28;;
15776;SDS011;7989;51.198;6.676;2024-02-26T00:38:37;2.13;;;1.73;;
15776;SDS011;7989;51.198;6.676;2024-02-26T00:41:05;3.65;;;2.10;;
15776;SDS011;7989;51.198;6.676;2024-02-26T00:43:32;2.25;;;1.83;;
15776;SDS011;7989;51.198;6.676;2024-02-26T00:45:59;2.13;;;1.92;;
15776;SDS011;7989;51.198;6.676;2024-02-26T00:48:25;2.28;;;1.88;;
15776;SDS011;7989;51.198;6.676;2024-02-26T00:50:52;2.67;;;2.03;;
15776;SDS011;7989;51.198;6.676;2024-02-26T00:53:20;1.88;;;1.60;;
15776;SDS011;7989;51.198;6.676;2024-02-26T00:55:47;1.85;;;1.33;;
15776;SDS011;7989;51.198;6.676;2024-02-26T00:58:14;2.60;;;2.03;;
15776;SDS011;7989;51.198;6.676;2024-02-26T01:00:41;1.40;;;1.30;;
15776;SDS011;7989;51.198;6.676;2024-02-26T01:03:08;2.55;;;1.85;;
15776;SDS011;7989;51.198;6.676;2024-02-26T01:05:35;1.90;;;1.50;;
15776;SDS011;7989;51.198;6.676;2024-02-26T01:08:03;4.95;;;1.70;;
15776;SDS011;7989;51.198;6.676;2024-02-26T01:10:31;2.33;;;1.67;;
15776;SDS011;7989;51.198;6.676;2024-02-26T01:12:59;2.80;;;1.48;;
15776;SDS011;7989;51.198;6.676;2024-02-26T01:15:26;4.25;;;1.70;;
15776;SDS011;7989;51.198;6.676;2024-02-26T01:17:53;2.75;;;1.40;;
15776;SDS011;7989;51.198;6.676;2024-02-26T01:20:20;1.55;;;1.40;;
15776;SDS011;7989;51.198;6.676;2024-02-26T01:22:47;4.05;;;1.98;;
15776;SDS011;7989;51.198;6.676;2024-02-26T01:25:13;1.30;;;1.05;;
15776;SDS011;7989;51.198;6.676;2024-02-26T01:27:42;5.38;;;1.63;;
15776;SDS011;7989;51.198;6.676;2024-02-26T01:30:09;1.23;;;1.10;;
15776;SDS011;7989;51.198;6.676;2024-02-26T01:32:37;1.30;;;1.20;;
15776;SDS011;7989;51.198;6.676;2024-02-26T01:35:03;1.63;;;0.80;;
15776;SDS011;7989;51.198;6.676;2024-02-26T01:37:32;0.85;;;0.80;;
15776;SDS011;7989;51.198;6.676;2024-02-26T01:39:59;2.65;;;1.00;;
15776;SDS011;7989;51.198;6.676;2024-02-26T01:42:29;2.20;;;1.17;;
15776;SDS011;7989;51.198;6.676;2024-02-26T01:44:57;0.80;;;0.73;;
15776;SDS011;7989;51.198;6.676;2024-02-26T01:47:24;1.25;;;0.90;;
15776;SDS011;7989;51.198;6.676;2024-02-26T01:49:52;1.10;;;0.90;;
15776;SDS011;7989;51.198;6.676;2024-02-26T01:52:19;0.85;;;0.80;;
15776;SDS011;7989;51.198;6.676;2024-02-26T01:54:47;1.23;;;0.82;;
15776;SDS011;7989;51.198;6.676;2024-02-26T01:57:15;2.55;;;1.13;;
15776;SDS011;7989;51.198;6.676;2024-02-26T01:59:42;1.80;;;1.23;;
15776;SDS011;7989;51.198;6.676;2024-02-26T02:02:11;1.40;;;1.00;;
15776;SDS011;7989;51.198;6.676;2024-02-26T02:04:38;0.82;;;0.82;;
15776;SDS011;7989;51.198;6.676;2024-02-26T02:07:06;3.10;;;1.20;;
15776;SDS011;7989;51.198;6.676;2024-02-26T02:09:33;1.65;;;1.00;;
15776;SDS011;7989;51.198;6.676;2024-02-26T02:12:00;1.63;;;1.00;;
15776;SDS011;7989;51.198;6.676;2024-02-26T02:14:27;1.67;;;1.15;;
15776;SDS011;7989;51.198;6.676;2024-02-26T02:16:54;2.00;;;1.52;;
15776;SDS011;7989;51.198;6.676;2024-02-26T02:19:22;1.60;;;1.10;;
15776;SDS011;7989;51.198;6.676;2024-02-26T02:21:50;2.90;;;1.67;;
15776;SDS011;7989;51.198;6.676;2024-02-26T02:24:17;3.45;;;1.30;;
15776;SDS011;7989;51.198;6.676;2024-02-26T02:26:44;3.72;;;1.23;;
15776;SDS011;7989;51.198;6.676;2024-02-26T02:29:11;2.40;;;1.40;;
15776;SDS011;7989;51.198;6.676;2024-02-26T02:31:38;1.98;;;1.38;;
15776;SDS011;7989;51.198;6.676;2024-02-26T02:34:05;2.22;;;1.30;;
15776;SDS011;7989;51.198;6.676;2024-02-26T02:36:32;1.75;;;1.10;;
15776;SDS011;7989;51.198;6.676;2024-02-26T02:39:00;1.13;;;0.85;;
15776;SDS011;7989;51.198;6.676;2024-02-26T02:41:28;1.98;;;1.42;;
15776;SDS011;7989;51.198;6.676;2024-02-26T02:43:55;1.58;;;1.30;;
15776;SDS011;7989;51.198;6.676;2024-02-26T02:46:22;2.88;;;1.33;;
15776;SDS011;7989;51.198;6.676;2024-02-26T02:48:49;1.50;;;1.30;;
15776;SDS011;7989;51.198;6.676;2024-02-26T02:51:16;3.22;;;1.50;;
15776;SDS011;7989;51.198;6.676;2024-02-26T02:53:43;2.88;;;1.08;;
15776;SDS011;7989;51.198;6.676;2024-02-26T02:56:11;1.02;;;0.93;;
15776;SDS011;7989;51.198;6.676;2024-02-26T02:58:37;1.17;;;1.08;;
15776;SDS011;7989;51.198;6.676;2024-02-26T03:01:04;1.35;;;1.10;;
15776;SDS011;7989;51.198;6.676;2024-02-26T03:03:31;1.45;;;1.05;;
15776;SDS011;7989;51.198;6.676;2024-02-26T03:05:58;1.20;;;0.98;;
15776;SDS011;7989;51.198;6.676;2024-02-26T03:08:25;1.08;;;0.95;;
15776;SDS011;7989;51.198;6.676;2024-02-26T03:10:52;1.63;;;0.88;;
15776;SDS011;7989;51.198;6.676;2024-02-26T03:13:20;0.88;;;0.85;;
15776;SDS011;7989;51.198;6.676;2024-02-26T03:15:47;1.73;;;1.20;;
15776;SDS011;7989;51.198;6.676;2024-02-26T03:18:14;1.00;;;1.00;;
15776;SDS011;7989;51.198;6.676;2024-02-26T03:20:41;2.10;;;1.10;;
15776;SDS011;7989;51.198;6.676;2024-02-26T03:23:07;4.05;;;1.17;;
15776;SDS011;7989;51.198;6.676;2024-02-26T03:25:37;3.15;;;1.40;;
15776;SDS011;7989;51.198;6.676;2024-02-26T03:28:03;1.33;;;0.90;;
15776;SDS011;7989;51.198;6.676;2024-02-26T03:30:32;1.08;;;0.98;;
15776;SDS011;7989;51.198;6.676;2024-02-26T03:32:59;1.50;;;1.20;;
15776;SDS011;7989;51.198;6.676;2024-02-26T03:35:26;1.38;;;1.00;;
15776;SDS011;7989;51.198;6.676;2024-02-26T03:37:53;2.03;;;1.50;;
15776;SDS011;7989;51.198;6.676;2024-02-26T03:40:19;2.30;;;1.10;;
15776;SDS011;7989;51.198;6.676;2024-02-26T03:42:46;1.10;;;1.00;;
15776;SDS011;7989;51.198;6.676;2024-02-26T03:45:13;1.10;;;0.98;;
15776;SDS011;7989;51.198;6.676;2024-02-26T03:47:41;1.35;;;1.20;;
15776;SDS011;7989;51.198;6.676;2024-02-26T03:50:09;1.40;;;1.00;;
15776;SDS011;7989;51.198;6.676;2024-02-26T03:52:36;2.40;;;1.38;;
15776;SDS011;7989;51.198;6.676;2024-02-26T03:55:03;1.33;;;1.20;;
15776;SDS011;7989;51.198;6.676;2024-02-26T03:57:30;1.27;;;1.17;;
15776;SDS011;7989;51.198;6.676;2024-02-26T03:59:57;2.00;;;1.55;;
15776;SDS011;7989;51.198;6.676;2024-02-26T04:02:23;1.23;;;1.13;;
15776;SDS011;7989;51.198;6.676;2024-02-26T04:04:52;2.53;;;1.40;;
15776;SDS011;7989;51.198;6.676;2024-02-26T04:07:18;1.73;;;1.33;;
15776;SDS011;7989;51.198;6.676;2024-02-26T04:09:45;2.88;;;1.42;;
15776;SDS011;7989;51.198;6.676;2024-02-26T04:12:12;2.00;;;1.67;;
15776;SDS011;7989;51.198;6.676;2024-02-26T04:14:39;1.88;;;1.70;;
15776;SDS011;7989;51.198;6.676;2024-02-26T04:17:06;2.03;;;1.88;;
15776;SDS011;7989;51.198;6.676;2024-02-26T04:19:33;1.65;;;1.33;;
15776;SDS011;7989;51.198;6.676;2024-02-26T04:22:01;1.30;;;1.20;;
15776;SDS011;7989;51.198;6.676;2024-02-26T04:24:27;2.28;;;1.48;;
15776;SDS011;7989;51.198;6.676;2024-02-26T04:26:54;2.60;;;1.27;;
15776;SDS011;7989;51.198;6.676;2024-02-26T04:29:21;2.80;;;1.60;;
15776;SDS011;7989;51.198;6.676;2024-02-26T04:31:48;2.65;;;1.35;;
15776;SDS011;7989;51.198;6.676;2024-02-26T04:34:14;1.40;;;1.30;;
15776;SDS011;7989;51.198;6.676;2024-02-26T04:36:41;2.28;;;1.27;;
15776;SDS011;7989;51.198;6.676;2024-02-26T04:39:10;7.13;;;1.50;;
15776;SDS011;7989;51.198;6.676;2024-02-26T04:41:37;2.50;;;1.60;;
15776;SDS011;7989;51.198;6.676;2024-02-26T04:44:04;1.65;;;1.40;;
15776;SDS011;7989;51.198;6.676;2024-02-26T04:46:31;2.00;;;1.30;;
15776;SDS011;7989;51.198;6.676;2024-02-26T04:48:57;1.80;;;1.70;;
15776;SDS011;7989;51.198;6.676;2024-02-26T04:51:24;1.88;;;1.30;;
15776;SDS011;7989;51.198;6.676;2024-02-26T04:53:51;2.20;;;1.25;;
15776;SDS011;7989;51.198;6.676;2024-02-26T04:56:20;2.38;;;1.23;;
15776;SDS011;7989;51.198;6.676;2024-02-26T04:58:46;2.80;;;1.70;;
15776;SDS011;7989;51.198;6.676;2024-02-26T05:01:14;2.30;;;1.90;;
15776;SDS011;7989;51.198;6.676;2024-02-26T05:03:42;1.73;;;1.38;;
15776;SDS011;7989;51.198;6.676;2024-02-26T05:06:09;2.38;;;1.70;;
15776;SDS011;7989;51.198;6.676;2024-02-26T05:08:35;1.83;;;1.30;;
15776;SDS011;7989;51.198;6.676;2024-02-26T05:11:03;2.92;;;1.85;;
15776;SDS011;7989;51.198;6.676;2024-02-26T05:13:32;2.92;;;1.35;;
15776;SDS011;7989;51.198;6.676;2024-02-26T05:15:59;2.05;;;1.70;;
15776;SDS011;7989;51.198;6.676;2024-02-26T05:18:27;2.72;;;1.85;;
15776;SDS011;7989;51.198;6.676;2024-02-26T05:20:54;3.92;;;1.73;;
15776;SDS011;7989;51.198;6.676;2024-02-26T05:23:20;2.45;;;1.65;;
15776;SDS011;7989;51.198;6.676;2024-02-26T05:25:48;2.10;;;1.70;;
15776;SDS011;7989;51.198;6.676;2024-02-26T05:28:15;1.98;;;1.50;;
15776;SDS011;7989;51.198;6.676;2024-02-26T05:30:43;2.47;;;1.55;;
15776;SDS011;7989;51.198;6.676;2024-02-26T05:33:10;2.10;;;1.90;;
15776;SDS011;7989;51.198;6.676;2024-02-26T05:35:36;2.53;;;2.00;;
15776;SDS011;7989;51.198;6.676;2024-02-26T05:38:03;1.95;;;1.50;;
15776;SDS011;7989;51.198;6.676;2024-02-26T05:40:30;2.53;;;2.03;;
15776;SDS011;7989;51.198;6.676;2024-02-26T05:42:57;2.80;;;1.85;;
15776;SDS011;7989;51.198;6.676;2024-02-26T05:45:24;2.30;;;1.83;;
15776;SDS011;7989;51.198;6.676;2024-02-26T05:47:52;2.63;;;2.25;;
15776;SDS011;7989;51.198;6.676;2024-02-26T05:50:18;2.17;;;1.70;;
15776;SDS011;7989;51.198;6.676;2024-02-26T05:52:45;2.55;;;1.90;;
15776;SDS011;7989;51.198;6.676;2024-02-26T05:55:12;2.80;;;2.22;;
15776;SDS011;7989;51.198;6.676;2024-02-26T05:57:40;2.03;;;1.70;;
15776;SDS011;7989;51.198;6.676;2024-02-26T06:00:08;3.80;;;1.88;;
15776;SDS011;7989;51.198;6.676;2024-02-26T06:02:35;3.20;;;1.70;;
15776;SDS011;7989;51.198;6.676;2024-02-26T06:05:03;3.60;;;1.90;;
15776;SDS011;7989;51.198;6.676;2024-02-26T06:07:32;2.72;;;2.35;;
15776;SDS011;7989;51.198;6.676;2024-02-26T06:09:59;3.67;;;2.10;;
15776;SDS011;7989;51.198;6.676;2024-02-26T06:12:27;4.35;;;2.83;;
15776;SDS011;7989;51.198;6.676;2024-02-26T06:14:55;5.25;;;2.10;;
15776;SDS011;7989;51.198;6.676;2024-02-26T06:17:23;4.82;;;2.40;;
15776;SDS011;7989;51.198;6.676;2024-02-26T06:19:50;2.47;;;2.10;;
15776;SDS011;7989;51.198;6.676;2024-02-26T06:22:18;4.10;;;2.33;;
15776;SDS011;7989;51.198;6.676;2024-02-26T06:24:45;3.85;;;2.33;;
15776;SDS011;7989;51.198;6.676;2024-02-26T06:27:11;4.40;;;2.20;;
15776;SDS011;7989;51.198;6.676;2024-02-26T06:29:38;3.50;;;2.42;;
15776;SDS011;7989;51.198;6.676;2024-02-26T06:32:05;3.58;;;2.42;;
15776;SDS011;7989;51.198;6.676;2024-02-26T06:34:32;2.45;;;2.25;;
15776;SDS011;7989;51.198;6.676;2024-02-26T06:36:59;2.67;;;2.28;;
15776;SDS011;7989;51.198;6.676;2024-02-26T06:39:27;2.70;;;2.45;;
15776;SDS011;7989;51.198;6.676;2024-02-26T06:41:54;5.70;;;2.80;;
15776;SDS011;7989;51.198;6.676;2024-02-26T06:44:26;3.72;;;2.60;;
15776;SDS011;7989;51.198;6.676;2024-02-26T06:46:56;3.60;;;2.67;;
15776;SDS011;7989;51.198;6.676;2024-02-26T06:49:23;2.63;;;2.45;;
15776;SDS011;7989;51.198;6.676;2024-02-26T06:51:50;3.10;;;2.58;;
15776;SDS011;7989;51.198;6.676;2024-02-26T06:54:17;2.67;;;2.47;;
15776;SDS011;7989;51.198;6.676;2024-02-26T06:56:45;5.28;;;3.25;;
15776;SDS011;7989;51.198;6.676;2024-02-26T06:59:12;2.58;;;2.38;;
15776;SDS011;7989;51.198;6.676;2024-02-26T07:01:39;3.92;;;2.67;;
15776;SDS011;7989;51.198;6.676;2024-02-26T07:04:07;3.97;;;2.47;;
15776;SDS011;7989;51.198;6.676;2024-02-26T07:06:35;3.78;;;2.78;;
15776;SDS011;7989;51.198;6.676;2024-02-26T07:09:02;6.60;;;5.65;;
15776;SDS011;7989;51.198;6.676;2024-02-26T07:11:29;5.82;;;5.13;;
15776;SDS011;7989;51.198;6.676;2024-02-26T07:13:57;8.27;;;6.78;;
15776;SDS011;7989;51.198;6.676;2024-02-26T07:16:25;4.82;;;3.88;;
15776;SDS011;7989;51.198;6.676;2024-02-26T07:18:52;2.58;;;2.38;;
15776;SDS011;7989;51.198;6.676;2024-02-26T07:21:19;3.83;;;2.40;;
15776;SDS011;7989;51.198;6.676;2024-02-26T07:23:46;3.08;;;2.60;;
15776;SDS011;7989;51.198;6.676;2024-02-26T07:26:12;3.08;;;2.83;;
15776;SDS011;7989;51.198;6.676;2024-02-26T07:28:40;4.82;;;2.92;;
15776;SDS011;7989;51.198;6.676;2024-02-26T07:31:08;3.10;;;2.80;;
15776;SDS011;7989;51.198;6.676;2024-02-26T07:33:34;3.20;;;2.67;;
15776;SDS011;7989;51.198;6.676;2024-02-26T07:36:01;3.17;;;2.60;;
15776;SDS011;7989;51.198;6.676;2024-02-26T07:38:29;6.45;;;3.78;;
15776;SDS011;7989;51.198;6.676;2024-02-26T07:40:55;5.53;;;3.08;;
15776;SDS011;7989;51.198;6.676;2024-02-26T07:43:23;6.32;;;3.25;;
15776;SDS011;7989;51.198;6.676;2024-02-26T07:45:49;3.97;;;3.03;;
15776;SDS011;7989;51.198;6.676;2024-02-26T07:48:17;5.40;;;3.20;;
15776;SDS011;7989;51.198;6.676;2024-02-26T07:50:44;3.95;;;3.33;;
15776;SDS011;7989;51.198;6.676;2024-02-26T07:53:11;3.60;;;3.30;;
15776;SDS011;7989;51.198;6.676;2024-02-26T07:55:38;3.17;;;2.88;;
15776;SDS011;7989;51.198;6.676;2024-02-26T07:58:05;5.43;;;4.07;;
15776;SDS011;7989;51.198;6.676;2024-02-26T08:00:32;4.18;;;3.30;;
15776;SDS011;7989;51.198;6.676;2024-02-26T08:02:59;3.83;;;3.33;;
15776;SDS011;7989;51.198;6.676;2024-02-26T08:05:27;4.57;;;2.70;;
15776;SDS011;7989;51.198;6.676;2024-02-26T08:07:54;6.25;;;3.22;;
15776;SDS011;7989;51.198;6.676;2024-02-26T08:10:21;7.10;;;4.68;;
15776;SDS011;7989;51.198;6.676;2024-02-26T08:12:48;3.60;;;3.30;;
15776;SDS011;7989;51.198;6.676;2024-02-26T08:15:15;3.50;;;3.20;;
15776;SDS011;7989;51.198;6.676;2024-02-26T08:17:43;3.85;;;3.47;;
15776;SDS011;7989;51.198;6.676;2024-02-26T08:20:12;4.65;;;3.40;;
15776;SDS011;7989;51.198;6.676;2024-02-26T08:22:40;4.95;;;3.80;;
15776;SDS011;7989;51.198;6.676;2024-02-26T08:25:07;4.13;;;3.03;;
15776;SDS011;7989;51.198;6.676;2024-02-26T08:27:35;4.35;;;2.95;;
15776;SDS011;7989;51.198;6.676;2024-02-26T08:30:02;3.67;;;3.28;;
15776;SDS011;7989;51.198;6.676;2024-02-26T08:32:30;5.40;;;3.00;;
15776;SDS011;7989;51.198;6.676;2024-02-26T08:34:57;5.95;;;3.60;;
15776;SDS011;7989;51.198;6.676;2024-02-26T08:37:23;3.92;;;3.35;;
15776;SDS011;7989;51.198;6.676;2024-02-26T08:39:51;3.45;;;3.10;;
15776;SDS011;7989;51.198;6.676;2024-02-26T08:42:18;3.83;;;2.92;;
15776;SDS011;7989;51.198;6.676;2024-02-26T08:44:45;4.65;;;3.17;;
15776;SDS011;7989;51.198;6.676;2024-02-26T08:47:12;4.85;;;3.03;;
15776;SDS011;7989;51.198;6.676;2024-02-26T08:49:42;3.83;;;2.50;;
15776;SDS011;7989;51.198;6.676;2024-02-26T08:52:08;21.83;;;19.02;;
15776;SDS011;7989;51.198;6.676;2024-02-26T08:54:35;23.25;;;17.27;;
15776;SDS011;7989;51.198;6.676;2024-02-26T08:57:04;25.30;;;22.35;;
15776;SDS011;7989;51.198;6.676;2024-02-26T08:59:31;22.60;;;20.30;;
15776;SDS011;7989;51.198;6.676;2024-02-26T09:01:58;7.28;;;3.60;;
15776;SDS011;7989;51.198;6.676;2024-02-26T09:04:25;4.72;;;4.32;;
15776;SDS011;7989;51.198;6.676;2024-02-26T09:06:52;3.88;;;3.42;;
15776;SDS011;7989;51.198;6.676;2024-02-26T09:09:19;4.32;;;3.25;;
15776;SDS011;7989;51.198;6.676;2024-02-26T09:11:47;4.10;;;3.17;;
15776;SDS011;7989;51.198;6.676;2024-02-26T09:14:17;18.38;;;15.90;;
15776;SDS011;7989;51.198;6.676;2024-02-26T09:16:44;15.80;;;13.82;;
15776;SDS011;7989;51.198;6.676;2024-02-26T09:19:13;4.32;;;3.63;;
15776;SDS011;7989;51.198;6.676;2024-02-26T09:21:41;6.97;;;5.57;;
15776;SDS011;7989;51.198;6.676;2024-02-26T09:24:09;13.80;;;12.00;;
15776;SDS011;7989;51.198;6.676;2024-02-26T09:26:36;4.63;;;3.88;;
15776;SDS011;7989;51.198;6.676;2024-02-26T09:29:02;13.93;;;8.77;;
15776;SDS011;7989;51.198;6.676;2024-02-26T09:31:31;5.10;;;4.30;;
15776;SDS011;7989;51.198;6.676;2024-02-26T09:33:59;8.38;;;7.00;;
15776;SDS011;7989;51.198;6.676;2024-02-26T09:36:26;12.07;;;7.65;;
15776;SDS011;7989;51.198;6.676;2024-02-26T09:38:52;9.80;;;6.50;;
15776;SDS011;7989;51.198;6.676;2024-02-26T09:41:19;5.78;;;4.47;;
15776;SDS011;7989;51.198;6.676;2024-02-26T09:43:46;4.60;;;3.63;;
15776;SDS011;7989;51.198;6.676;2024-02-26T09:46:18;8.00;;;4.25;;
15776;SDS011;7989;51.198;6.676;2024-02-26T09:48:47;13.13;;;4.32;;
15776;SDS011;7989;51.198;6.676;2024-02-26T09:51:14;12.20;;;7.72;;
15776;SDS011;7989;51.198;6.676;2024-02-26T09:53:42;7.55;;;5.03;;
15776;SDS011;7989;51.198;6.676;2024-02-26T09:56:11;6.47;;;4.10;;
15776;SDS011;7989;51.198;6.676;2024-02-26T09:58:38;5.78;;;3.25;;
15776;SDS011;7989;51.198;6.676;2024-02-26T10:01:07;5.20;;;2.88;;
15776;SDS011;7989;51.198;6.676;2024-02-26T10:03:38;6.65;;;3.88;;
15776;SDS011;7989;51.198;6.676;2024-02-26T10:06:10;5.13;;;3.45;;
15776;SDS011;7989;51.198;6.676;2024-02-26T10:08:37;5.88;;;3.30;;
15776;SDS011;7989;51.198;6.676;2024-02-26T10:11:04;8.02;;;3.45;;
15776;SDS011;7989;51.198;6.676;2024-02-26T10:13:33;6.25;;;4.07;;
15776;SDS011;7989;51.198;6.676;2024-02-26T10:16:01;5.97;;;3.75;;
15776;SDS011;7989;51.198;6.676;2024-02-26T10:18:42;7.18;;;3.33;;
15776;SDS011;7989;51.198;6.676;2024-02-26T10:21:12;4.32;;;3.15;;
15776;SDS011;7989;51.198;6.676;2024-02-26T10:23:41;6.85;;;4.55;;
15776;SDS011;7989;51.198;6.676;2024-02-26T10:26:08;10.10;;;7.00;;
15776;SDS011;7989;51.198;6.676;2024-02-26T10:28:37;4.30;;;3.45;;
15776;SDS011;7989;51.198;6.676;2024-02-26T10:31:05;5.82;;;3.30;;
15776;SDS011;7989;51.198;6.676;2024-02-26T10:33:33;7.78;;;4.30;;
15776;SDS011;7989;51.198;6.676;2024-02-26T10:36:00;4.47;;;3.25;;
15776;SDS011;7989;51.198;6.676;2024-02-26T10:38:29;6.43;;;3.40;;
15776;SDS011;7989;51.198;6.676;2024-02-26T10:40:56;3.65;;;3.15;;
15776;SDS011;7989;51.198;6.676;2024-02-26T10:43:22;5.25;;;3.25;;
15776;SDS011;7989;51.198;6.676;2024-02-26T10:45:51;7.60;;;3.90;;
15776;SDS011;7989;51.198;6.676;2024-02-26T10:48:18;5.65;;;3.90;;
15776;SDS011;7989;51.198;6.676;2024-02-26T10:50:45;4.85;;;3.53;;
15776;SDS011;7989;51.198;6.676;2024-02-26T10:53:13;4.93;;;3.50;;
15776;SDS011;7989;51.198;6.676;2024-02-26T10:55:46;5.28;;;3.58;;
15776;SDS011;7989;51.198;6.676;2024-02-26T10:58:15;3.92;;;3.40;;
15776;SDS011;7989;51.198;6.676;2024-02-26T11:00:43;4.72;;;3.60;;
15776;SDS011;7989;51.198;6.676;2024-02-26T11:03:12;3.45;;;3.15;;
15776;SDS011;7989;51.198;6.676;2024-02-26T11:05:42;4.63;;;3.67;;
15776;SDS011;7989;51.198;6.676;2024-02-26T11:08:10;5.05;;;3.97;;
15776;SDS011;7989;51.198;6.676;2024-02-26T11:10:38;4.40;;;4.00;;
15776;SDS011;7989;51.198;6.676;2024-02-26T11:13:08;5.45;;;3.83;;
15776;SDS011;7989;51.198;6.676;2024-02-26T11:15:38;3.92;;;3.47;;
15776;SDS011;7989;51.198;6.676;2024-02-26T11:18:06;4.85;;;3.47;;
15776;SDS011;7989;51.198;6.676;2024-02-26T11:20:35;4.30;;;3.90;;
15776;SDS011;7989;51.198;6.676;2024-02-26T11:23:06;5.10;;;3.33;;
15776;SDS011;7989;51.198;6.676;2024-02-26T11:25:34;4.57;;;3.58;;
15776;SDS011;7989;51.198;6.676;2024-02-26T11:28:02;8.10;;;3.92;;
15776;SDS011;7989;51.198;6.676;2024-02-26T11:30:33;5.35;;;3.78;;
15776;SDS011;7989;51.198;6.676;2024-02-26T11:33:06;5.40;;;3.78;;
15776;SDS011;7989;51.198;6.676;2024-02-26T11:35:34;5.57;;;4.40;;
15776;SDS011;7989;51.198;6.676;2024-02-26T11:38:02;4.80;;;3.83;;
15776;SDS011;7989;51.198;6.676;2024-02-26T11:40:31;4.45;;;3.97;;
15776;SDS011;7989;51.198;6.676;2024-02-26T11:42:59;5.75;;;3.75;;
15776;SDS011;7989;51.198;6.676;2024-02-26T11:45:48;6.53;;;4.35;;
15776;SDS011;7989;51.198;6.676;2024-02-26T11:48:20;4.53;;;4.13;;
15776;SDS011;7989;51.198;6.676;2024-02-26T11:50:48;4.88;;;3.95;;
15776;SDS011;7989;51.198;6.676;2024-02-26T11:53:19;4.68;;;4.13;;
15776;SDS011;7989;51.198;6.676;2024-02-26T11:55:46;4.88;;;4.45;;
15776;SDS011;7989;51.198;6.676;2024-02-26T11:58:13;6.72;;;4.18;;
15776;SDS011;7989;51.198;6.676;2024-02-26T12:00:40;5.05;;;4.55;;
15776;SDS011;7989;51.198;6.676;2024-02-26T12:03:08;4.93;;;4.40;;
15776;SDS011;7989;51.198;6.676;2024-02-26T12:05:37;4.25;;;3.85;;
15776;SDS011;7989;51.198;6.676;2024-02-26T12:08:05;4.85;;;3.95;;
15776;SDS011;7989;51.198;6.676;2024-02-26T12:10:34;4.50;;;4.10;;
15776;SDS011;7989;51.198;6.676;2024-02-26T12:13:05;5.07;;;4.57;;
15776;SDS011;7989;51.198;6.676;2024-02-26T12:15:35;4.68;;;4.07;;
15776;SDS011;7989;51.198;6.676;2024-02-26T12:18:04;5.95;;;5.30;;
15776;SDS011;7989;51.198;6.676;2024-02-26T12:20:34;6.05;;;5.35;;
15776;SDS011;7989;51.198;6.676;2024-02-26T12:23:01;6.78;;;5.35;;
15776;SDS011;7989;51.198;6.676;2024-02-26T12:25:30;6.07;;;5.00;;
15776;SDS011;7989;51.198;6.676;2024-02-26T12:27:58;6.43;;;5.28;;
15776;SDS011;7989;51.198;6.676;2024-02-26T12:30:25;7.40;;;6.40;;
15776;SDS011;7989;51.198;6.676;2024-02-26T12:32:54;7.07;;;5.30;;
15776;SDS011;7989;51.198;6.676;2024-02-26T12:35:23;7.07;;;6.32;;
15776;SDS011;7989;51.198;6.676;2024-02-26T12:37:52;7.22;;;6.53;;
15776;SDS011;7989;51.198;6.676;2024-02-26T12:40:20;7.65;;;6.85;;
15776;SDS011;7989;51.198;6.676;2024-02-26T12:42:46;7.65;;;6.95;;
15776;SDS011;7989;51.198;6.676;2024-02-26T12:45:13;7.55;;;6.72;;
15776;SDS011;7989;51.198;6.676;2024-02-26T12:47:41;8.98;;;8.02;;
15776;SDS011;7989;51.198;6.676;2024-02-26T12:50:09;8.57;;;7.75;;
15776;SDS011;7989;51.198;6.676;2024-02-26T12:52:37;8.10;;;7.40;;
15776;SDS011;7989;51.198;6.676;2024-02-26T12:55:07;9.88;;;7.25;;
15776;SDS011;7989;51.198;6.676;2024-02-26T12:57:35;9.38;;;8.48;;
15776;SDS011;7989;51.198;6.676;2024-02-26T13:00:03;8.30;;;7.25;;
15776;SDS011;7989;51.198;6.676;2024-02-26T13:02:34;9.88;;;8.55;;
15776;SDS011;7989;51.198;6.676;2024-02-26T13:05:02;9.10;;;8.20;;
15776;SDS011;7989;51.198;6.676;2024-02-26T13:07:30;9.85;;;8.85;;
15776;SDS011;7989;51.198;6.676;2024-02-26T13:09:58;9.73;;;8.65;;
15776;SDS011;7989;51.198;6.676;2024-02-26T13:12:26;9.45;;;8.40;;
15776;SDS011;7989;51.198;6.676;2024-02-26T13:14:59;8.27;;;7.68;;
15776;SDS011;7989;51.198;6.676;2024-02-26T13:17:26;8.85;;;8.05;;
15776;SDS011;7989;51.198;6.676;2024-02-26T13:19:53;8.68;;;7.95;;
15776;SDS011;7989;51.198;6.676;2024-02-26T13:22:21;8.98;;;7.65;;
15776;SDS011;7989;51.198;6.676;2024-02-26T13:24:53;9.70;;;8.77;;
15776;SDS011;7989;51.198;6.676;2024-02-26T13:27:21;9.40;;;8.50;;
15776;SDS011;7989;51.198;6.676;2024-02-26T13:29:50;9.25;;;8.35;;
15776;SDS011;7989;51.198;6.676;2024-02-26T13:32:32;8.35;;;7.55;;
15776;SDS011;7989;51.198;6.676;2024-02-26T13:35:07;8.48;;;7.70;;
15776;SDS011;7989;51.198;6.676;2024-02-26T13:37:34;9.45;;;8.48;;
15776;SDS011;7989;51.198;6.676;2024-02-26T13:40:04;8.70;;;7.90;;
15776;SDS011;7989;51.198;6.676;2024-02-26T13:42:31;9.40;;;8.60;;
15776;SDS011;7989;51.198;6.676;2024-02-26T13:45:00;8.60;;;7.82;;
15776;SDS011;7989;51.198;6.676;2024-02-26T13:47:27;9.05;;;8.25;;
15776;SDS011;7989;51.198;6.676;2024-02-26T13:49:53;7.97;;;7.18;;
15776;SDS011;7989;51.198;6.676;2024-02-26T13:52:20;8.90;;;8.00;;
15776;SDS011;7989;51.198;6.676;2024-02-26T13:54:48;8.40;;;7.60;;
15776;SDS011;7989;51.198;6.676;2024-02-26T13:57:15;9.27;;;8.38;;
15776;SDS011;7989;51.198;6.676;2024-02-26T13:59:42;8.57;;;7.78;;
15776;SDS011;7989;51.198;6.676;2024-02-26T14:02:10;9.43;;;8.50;;
15776;SDS011;7989;51.198;6.676;2024-02-26T14:04:37;9.77;;;8.98;;
15776;SDS011;7989;51.198;6.676;2024-02-26T14:07:04;10.18;;;9.15;;
15776;SDS011;7989;51.198;6.676;2024-02-26T14:09:31;9.00;;;8.25;;
15776;SDS011;7989;51.198;6.676;2024-02-26T14:11:58;9.63;;;8.75;;
15776;SDS011;7989;51.198;6.676;2024-02-26T14:14:26;8.93;;;8.13;;
15776;SDS011;7989;51.198;6.676;2024-02-26T14:16:53;9.25;;;8.45;;
15776;SDS011;7989;51.198;6.676;2024-02-26T14:19:22;9.52;;;8.63;;
15776;SDS011;7989;51.198;6.676;2024-02-26T14:21:48;8.55;;;7.75;;
15776;SDS011;7989;51.198;6.676;2024-02-26T14:24:15;226.95;;;30.55;;
15776;SDS011;7989;51.198;6.676;2024-02-26T14:26:42;10.48;;;8.02;;
15776;SDS011;7989;51.198;6.676;2024-02-26T14:29:09;8.55;;;7.75;;
15776;SDS011;7989;51.198;6.676;2024-02-26T14:31:35;10.95;;;7.82;;
15776;SDS011;7989;51.198;6.676;2024-02-26T14:34:02;7.47;;;6.70;;
15776;SDS011;7989;51.198;6.676;2024-02-26T14:36:30;7.72;;;7.03;;
15776;SDS011;7989;51.198;6.676;2024-02-26T14:38:57;7.97;;;6.97;;
15776;SDS011;7989;51.198;6.676;2024-02-26T14:41:24;7.53;;;6.90;;
15776;SDS011;7989;51.198;6.676;2024-02-26T14:43:51;9.75;;;6.30;;
15776;SDS011;7989;51.198;6.676;2024-02-26T14:46:18;7.05;;;6.45;;
15776;SDS011;7989;51.198;6.676;2024-02-26T14:48:44;7.47;;;6.70;;
15776;SDS011;7989;51.198;6.676;2024-02-26T14:51:11;6.45;;;5.90;;
15776;SDS011;7989;51.198;6.676;2024-02-26T14:53:39;10.35;;;6.97;;
15776;SDS011;7989;51.198;6.676;2024-02-26T14:56:06;6.95;;;5.88;;
15776;SDS011;7989;51.198;6.676;2024-02-26T14:58:34;5.90;;;5.40;;
15776;SDS011;7989;51.198;6.676;2024-02-26T15:01:03;6.00;;;5.40;;
15776;SDS011;7989;51.198;6.676;2024-02-26T15:03:29;7.28;;;6.10;;